Terminal Aerodrome Forecast
Issued by NWS Portland, OR

Home | Current Version | Previous Version | Text Only | Print | Product List | Glossary On
Versions: 1 2 3 4 5 6 7 8 9 10 11 12 13 14 15 16 17 18 19 20 21 22 23 24 25 26 27 28 29 30
000
FTUS46 KPQR 230542
TAFEUG
TAF
KEUG 230542Z 2306/2406 29004KT P6SM VCSH SCT030 BKN070
     FM231200 VRB04KT P6SM -SHRA BKN040
     FM231800 22010G18KT P6SM -SHRA SCT015 BKN025 BKN050=

USA.gov is the U.S. government's official web portal to all federal, state and local government web resources and services.